EIWF 191930Z 21012KT 9999 SCT025 12/11 Q1017 EIWF 191900Z 21012KT 9999 BKN022 12/11 Q1018 EIWF 191830Z 21011KT 9999 SCT049 13/11 Q1017 EIWF 191700Z 21018KT 9999 FEW020 SCT048 14/11 Q1017 EIWF 191630Z 21017KT 9999 FEW017 SCT048 14/12 Q1018 EIWF 191600Z 21018KT 9999 SCT017 SCT048 15/12 Q1018 EIWF 191530Z 21018KT 9999 FEW022 SCT048 14/12 Q1018 EIWF 191500Z 21017KT 9999 FEW020 SCT048 15/12 Q1018 EIWF 191430Z 21018KT 9999 FEW022 SCT047 15/11 Q1018 EIWF 191400Z 21017KT 9999 FEW020 SCT047 15/12 Q1018 EIWF 191330Z 21017KT 9999 FEW020 SCT045 15/11 Q1018 EIWF 191300Z 21014KT 170V250 9999 FEW025 SCT049 15/11 Q1018 EIWF 191200Z 21015KT CAVOK 15/11 Q1017 EIWF 191130Z 21017KT 9999 SCT025 14/10 Q1017 EIWF 191100Z 22017KT 9999 SCT025 15/12 Q1017 EIWF 191030Z 22015KT 180V240 9999 FEW025 14/11 Q1017 EIWF 191000Z 22014KT 9999 FEW024 14/10 Q1017 EIWF 190930Z 22015KT 9999 FEW025 14/10 Q1017 EIWF 181930Z 21019KT 9999 SCT024 12/10 Q1010 EIWF 181900Z 21020KT 9999 SCT047 12/10 Q1010 EIWF 181830Z 21018G28KT 9999 SCT037 12/10 Q1010 EIWF 181800Z 21018KT 9999 SCT020 12/10 Q1010 EIWF 181730Z 21024KT 7000 VCSH FEW006 SCT018 12/11 Q1010 RERA EIWF 181700Z 18022G32KT 8000 RA SCT016CB SCT025 13/11 Q1009 EIWF 181630Z 18022G32KT 150V210 9999 SCT012 14/12 Q1010 EIWF 181600Z 18021KT 150V210 9999 SCT011 14/12 Q1010 EIWF 181530Z 18020G30KT 150V210 9999 SCT012 15/13 Q1010 EIWF 181500Z 18020G30KT 140V210 9999 BKN010 14/12 Q1010 EIWF 181430Z 17021KT 150V210 9999 BKN009 14/12 Q1011 EIWF 181400Z 18020KT 9999 SCT009 14/12 Q1011 EIWF 181330Z 17018G28KT 130V210 9999 SCT010 14/12 Q1012 EIWF 181300Z 18020G30KT 150V210 9999 SCT014 14/12 Q1012

METAR Messwerte "WATERFORD ARPT" EIWF

Zurück zur Übersicht

Ortsname
Ländercode / m ü. NN
Zeit Temperatur Taupunkt Rel.
Luftfeuchte
Luftdruck:
Altimeter
NN
Station
Wind in Beaufort
(Knoten)
Sichtweite
(Meter)
Wolken
(Meter über Grund)
Wettererscheinung
WATERFORD ARPT
IE 26
Do 19.05. 21:30121194 %1017
1017
1014
SSW 4 (12)>= 10000Wolkig (760) 
WATERFORD ARPT
IE 26
Do 19.05. 21:00121194 %1018
1018
1015
SSW 4 (12)>= 10000Stark bewölkt (670) 
WATERFORD ARPT
IE 26
Do 19.05. 20:30131188 %1017
1017
1014
SSW 4 (11)>= 10000Wolkig (1500) 
WATERFORD ARPT
IE 26
Do 19.05. 19:00141182 %1017
1017
1014
SSW 5 (18)>= 10000Wolkig (1500)
Leicht bewölkt (610)
 
WATERFORD ARPT
IE 26
Do 19.05. 18:30141288 %1018
1018
1015
SSW 5 (17)>= 10000Wolkig (1500)
Leicht bewölkt (520)
 
WATERFORD ARPT
IE 26
Do 19.05. 18:00151282 %1018
1018
1015
SSW 5 (18)>= 10000Wolkig (1500)
Wolkig (520)
 
WATERFORD ARPT
IE 26
Do 19.05. 17:30141288 %1018
1018
1015
SSW 5 (18)>= 10000Wolkig (1500)
Leicht bewölkt (670)
 
WATERFORD ARPT
IE 26
Do 19.05. 17:00151282 %1018
1018
1015
SSW 5 (17)>= 10000Wolkig (1500)
Leicht bewölkt (610)
 
WATERFORD ARPT
IE 26
Do 19.05. 16:30151177 %1018
1018
1015
SSW 5 (18)>= 10000Wolkig (1400)
Leicht bewölkt (670)
 
WATERFORD ARPT
IE 26
Do 19.05. 16:00151282 %1018
1018
1015
SSW 5 (17)>= 10000Wolkig (1400)
Leicht bewölkt (610)
 
WATERFORD ARPT
IE 26
Do 19.05. 15:30151177 %1018
1018
1015
SSW 5 (17)>= 10000Wolkig (1400)
Leicht bewölkt (610)
 
WATERFORD ARPT
IE 26
Do 19.05. 15:00151177 %1018
1018
1015
SSW 4 (14)
S - WSW
>= 10000Wolkig (1500)
Leicht bewölkt (760)
 
WATERFORD ARPT
IE 26
Do 19.05. 14:00151177 %1017
1017
1014
SSW 4 (15)>= 10000Nicht signifikant 
WATERFORD ARPT
IE 26
Do 19.05. 13:30141077 %1017
1017
1014
SSW 5 (17)>= 10000Wolkig (760) 
WATERFORD ARPT
IE 26
Do 19.05. 13:00151282 %1017
1017
1014
SW 5 (17)>= 10000Wolkig (760) 
WATERFORD ARPT
IE 26
Do 19.05. 12:30141182 %1017
1017
1014
SW 4 (15)
S - WSW
>= 10000Leicht bewölkt (760) 
WATERFORD ARPT
IE 26
Do 19.05. 12:00141077 %1017
1017
1014
SW 4 (14)>= 10000Leicht bewölkt (730) 
WATERFORD ARPT
IE 26
Do 19.05. 11:30141077 %1017
1017
1014
SW 4 (15)>= 10000Leicht bewölkt (760) 
WATERFORD ARPT
IE 26
Mi 18.05. 21:30121088 %1010
1010
1007
SSW 5 (19)>= 10000Wolkig (730) 
WATERFORD ARPT
IE 26
Mi 18.05. 21:00121088 %1010
1010
1007
SSW 5 (20)>= 10000Wolkig (1400) 
WATERFORD ARPT
IE 26
Mi 18.05. 20:30121088 %1010
1010
1007
SSW 5 (18) - 7 (28)>= 10000Wolkig (1100) 
WATERFORD ARPT
IE 26
Mi 18.05. 20:00121088 %1010
1010
1007
SSW 5 (18)>= 10000Wolkig (610) 
WATERFORD ARPT
IE 26
Mi 18.05. 19:30121194 %1010
1010
1007
SSW 6 (24)7000Wolkig (550)
Leicht bewölkt (180)
 
WATERFORD ARPT
IE 26
Mi 18.05. 19:00131188 %1009
1009
1006
S 6 (22) - 7 (32)8000Wolkig (760)
Wolkig Cb (490)
Regen
WATERFORD ARPT
IE 26
Mi 18.05. 18:30141288 %1010
1010
1007
S 6 (22) - 7 (32)
SSO - SSW
>= 10000Wolkig (370) 
WATERFORD ARPT
IE 26
Mi 18.05. 18:00141288 %1010
1010
1007
S 6 (21)
SSO - SSW
>= 10000Wolkig (340) 
WATERFORD ARPT
IE 26
Mi 18.05. 17:30151388 %1010
1010
1007
S 5 (20) - 7 (30)
SSO - SSW
>= 10000Wolkig (370) 
WATERFORD ARPT
IE 26
Mi 18.05. 17:00141288 %1010
1010
1007
S 5 (20) - 7 (30)
SO - SSW
>= 10000Stark bewölkt (300) 
WATERFORD ARPT
IE 26
Mi 18.05. 16:30141288 %1011
1011
1008
S 6 (21)
SSO - SSW
>= 10000Stark bewölkt (270) 
WATERFORD ARPT
IE 26
Mi 18.05. 16:00141288 %1011
1011
1008
S 5 (20)>= 10000Wolkig (270) 
WATERFORD ARPT
IE 26
Mi 18.05. 15:30141288 %1012
1012
1009
S 5 (18) - 7 (28)
SO - SSW
>= 10000Wolkig (300) 
WATERFORD ARPT
IE 26
Mi 18.05. 15:00141288 %1012
1012
1009
S 5 (20) - 7 (30)
SSO - SSW
>= 10000Wolkig (430) 

Altimeter: Einstellung am Altimeter (Höhenmesser), die Höhe 0 muss auf diesen Luftdruckwert zeigen, damit das Gerät die Stationshöhe richtig anzeigt.

NN: Luftdruck reduziert auf "Normal Null", auf Meereshöhe, dieser von der Temperatur abhängige Wert wird bisweilen unkorrekt einfach als "Luftdruck" bezeichnet. Eigentlich nur eine fiktive Größe, die es erlaubt, Stationen auf unterschiedlichen Höhen miteinander zu vergleichen.

Station: Realer Luftdruck an der Station.